Unionville, Ohio
Current Conditions -  °F | °C
As of 2:54 AM on Tuesday 21 Oct 2014 (Local Time) from KMRT Reporting Station
Broken Clouds Broken Clouds  
Wind Chill: 47°   Ceiling: 7000
Heat Index: 49°   Visibility: 7mi
Dew Point: 47°   Wind: 5mph
Humidity: 91%   Direction: 310°NW
Pressure: 29.9"   Gusts: NA
Location:  40.14°N, 83.34°W
Report Text: KMRT 210654Z AUTO 31004KT 7SM SCT018 BKN070 BKN085 10/08 A2990 RMK AO2 T00950081
Loading
Personal Weather Stations






























Interactive Weather Map
Tropical Storm Tracking
New forecast layout! Learn more

10-Day Weather Forecast

Advertisements
Track Severe Weather on mobile